KHJO

Hanford Municipal Airport

Hanford, California, USA
METAR KHJO 150053Z AUTO 33006KT 10SM CLR 37/08 A2977 RMK AO2 SLP080 T03670078
Observed Flight Rules
Aug-15 @ 00:53 UTC (13 minutes ago) Visual Flight Rules
Wind Visibility Clouds
330° at 6 knots 10 miles
  • Clear skies
Temperatures Readings
Current 37°C / 99°F
Dewpoint 8°C / 46°F
Humidity 17%
Altimeter 29.77" Hg
Pressure 1008 hPa
Elevation 74
METAR KHJO 150053Z AUTO 33006KT 10SM CLR 37/08 A2977 RMK AO2 SLP080 T03670078
Observed Flight Rules
Aug-15 @ 00:53 UTC
(13 minutes ago)
VFR
Wind Visibility
330° at 6 knots 10 miles
Clouds
  • Clear skies
Temperature Dewpoint
37°C / 99°F 8°C / 46°F
Humidity Altimeter Pressure
17% 29.77" Hg 1008 hPa